sensor_id;sensor_type;location;lat;lon;timestamp;P1;durP1;ratioP1;P2;durP2;ratioP2
37339;SDS011;23223;51.006;7.610;2023-07-31T00:02:14;6.40;;;2.58;;
37339;SDS011;23223;51.006;7.610;2023-07-31T00:04:40;8.75;;;2.97;;
37339;SDS011;23223;51.006;7.610;2023-07-31T00:07:05;6.63;;;2.60;;
37339;SDS011;23223;51.006;7.610;2023-07-31T00:09:32;5.28;;;2.50;;
37339;SDS011;23223;51.006;7.610;2023-07-31T00:11:58;5.95;;;2.25;;
37339;SDS011;23223;51.006;7.610;2023-07-31T00:14:23;7.57;;;2.85;;
37339;SDS011;23223;51.006;7.610;2023-07-31T00:16:49;9.85;;;3.58;;
37339;SDS011;23223;51.006;7.610;2023-07-31T00:19:14;5.22;;;2.83;;
37339;SDS011;23223;51.006;7.610;2023-07-31T00:21:40;7.75;;;3.15;;
37339;SDS011;23223;51.006;7.610;2023-07-31T00:24:05;7.72;;;3.35;;
37339;SDS011;23223;51.006;7.610;2023-07-31T00:26:31;6.18;;;3.25;;
37339;SDS011;23223;51.006;7.610;2023-07-31T00:28:56;5.70;;;2.95;;
37339;SDS011;23223;51.006;7.610;2023-07-31T00:31:22;6.05;;;2.78;;
37339;SDS011;23223;51.006;7.610;2023-07-31T00:33:48;7.15;;;3.33;;
37339;SDS011;23223;51.006;7.610;2023-07-31T00:36:13;10.10;;;3.10;;
37339;SDS011;23223;51.006;7.610;2023-07-31T00:38:39;5.93;;;2.40;;
37339;SDS011;23223;51.006;7.610;2023-07-31T00:41:04;4.72;;;2.10;;
37339;SDS011;23223;51.006;7.610;2023-07-31T00:43:30;6.35;;;2.67;;
37339;SDS011;23223;51.006;7.610;2023-07-31T00:45:55;6.57;;;2.80;;
37339;SDS011;23223;51.006;7.610;2023-07-31T00:48:21;6.97;;;2.40;;
37339;SDS011;23223;51.006;7.610;2023-07-31T00:50:47;6.57;;;2.95;;
37339;SDS011;23223;51.006;7.610;2023-07-31T00:53:13;5.55;;;2.97;;
37339;SDS011;23223;51.006;7.610;2023-07-31T00:55:38;5.15;;;2.97;;
37339;SDS011;23223;51.006;7.610;2023-07-31T00:58:04;6.75;;;2.55;;
37339;SDS011;23223;51.006;7.610;2023-07-31T01:00:30;7.03;;;2.70;;
37339;SDS011;23223;51.006;7.610;2023-07-31T01:02:55;8.38;;;3.25;;
37339;SDS011;23223;51.006;7.610;2023-07-31T01:05:25;5.78;;;2.83;;
37339;SDS011;23223;51.006;7.610;2023-07-31T01:08:06;7.45;;;2.50;;
37339;SDS011;23223;51.006;7.610;2023-07-31T01:11:02;6.63;;;3.17;;
37339;SDS011;23223;51.006;7.610;2023-07-31T01:13:34;12.55;;;4.15;;
37339;SDS011;23223;51.006;7.610;2023-07-31T01:16:00;11.20;;;3.65;;
37339;SDS011;23223;51.006;7.610;2023-07-31T01:18:26;4.82;;;2.83;;
37339;SDS011;23223;51.006;7.610;2023-07-31T01:20:54;7.72;;;3.33;;
37339;SDS011;23223;51.006;7.610;2023-07-31T01:26:29;12.88;;;3.58;;
37339;SDS011;23223;51.006;7.610;2023-07-31T01:29:03;7.25;;;2.97;;
37339;SDS011;23223;51.006;7.610;2023-07-31T01:31:36;4.13;;;2.45;;
37339;SDS011;23223;51.006;7.610;2023-07-31T01:34:02;9.68;;;3.20;;
37339;SDS011;23223;51.006;7.610;2023-07-31T01:36:29;4.38;;;2.95;;
37339;SDS011;23223;51.006;7.610;2023-07-31T01:38:59;6.35;;;3.15;;
37339;SDS011;23223;51.006;7.610;2023-07-31T01:41:26;7.15;;;2.90;;
37339;SDS011;23223;51.006;7.610;2023-07-31T01:43:51;5.90;;;2.53;;
37339;SDS011;23223;51.006;7.610;2023-07-31T01:46:17;5.68;;;2.55;;
37339;SDS011;23223;51.006;7.610;2023-07-31T01:48:42;5.03;;;2.38;;
37339;SDS011;23223;51.006;7.610;2023-07-31T01:51:08;7.43;;;3.35;;
37339;SDS011;23223;51.006;7.610;2023-07-31T01:53:33;8.32;;;2.92;;
37339;SDS011;23223;51.006;7.610;2023-07-31T01:55:59;6.25;;;2.63;;
37339;SDS011;23223;51.006;7.610;2023-07-31T01:58:25;5.80;;;2.75;;
37339;SDS011;23223;51.006;7.610;2023-07-31T02:00:50;8.35;;;2.58;;
37339;SDS011;23223;51.006;7.610;2023-07-31T02:03:16;5.82;;;3.10;;
37339;SDS011;23223;51.006;7.610;2023-07-31T02:05:45;4.20;;;2.10;;
37339;SDS011;23223;51.006;7.610;2023-07-31T02:08:11;4.85;;;2.35;;
37339;SDS011;23223;51.006;7.610;2023-07-31T02:10:36;5.13;;;2.75;;
37339;SDS011;23223;51.006;7.610;2023-07-31T02:13:02;6.00;;;2.70;;
37339;SDS011;23223;51.006;7.610;2023-07-31T02:15:29;6.22;;;2.42;;
37339;SDS011;23223;51.006;7.610;2023-07-31T02:17:55;10.63;;;2.60;;
37339;SDS011;23223;51.006;7.610;2023-07-31T02:20:20;7.00;;;2.58;;
37339;SDS011;23223;51.006;7.610;2023-07-31T02:22:46;6.18;;;2.38;;
37339;SDS011;23223;51.006;7.610;2023-07-31T02:25:11;11.13;;;2.90;;
37339;SDS011;23223;51.006;7.610;2023-07-31T02:27:37;5.28;;;2.72;;
37339;SDS011;23223;51.006;7.610;2023-07-31T02:30:03;10.40;;;3.05;;
37339;SDS011;23223;51.006;7.610;2023-07-31T02:32:28;5.75;;;2.95;;
37339;SDS011;23223;51.006;7.610;2023-07-31T02:34:54;6.53;;;2.80;;
37339;SDS011;23223;51.006;7.610;2023-07-31T02:37:19;7.28;;;2.42;;
37339;SDS011;23223;51.006;7.610;2023-07-31T02:39:45;8.45;;;2.72;;
37339;SDS011;23223;51.006;7.610;2023-07-31T02:42:10;10.90;;;2.92;;
37339;SDS011;23223;51.006;7.610;2023-07-31T02:44:36;6.93;;;3.30;;
37339;SDS011;23223;51.006;7.610;2023-07-31T02:47:02;8.98;;;3.08;;
37339;SDS011;23223;51.006;7.610;2023-07-31T02:49:28;3.28;;;2.58;;
37339;SDS011;23223;51.006;7.610;2023-07-31T02:51:53;5.28;;;2.72;;
37339;SDS011;23223;51.006;7.610;2023-07-31T02:54:19;9.48;;;3.70;;
37339;SDS011;23223;51.006;7.610;2023-07-31T02:56:46;6.90;;;2.67;;
37339;SDS011;23223;51.006;7.610;2023-07-31T02:59:12;4.55;;;2.88;;
37339;SDS011;23223;51.006;7.610;2023-07-31T03:01:38;10.52;;;3.38;;
37339;SDS011;23223;51.006;7.610;2023-07-31T03:04:04;12.00;;;3.17;;
37339;SDS011;23223;51.006;7.610;2023-07-31T03:06:29;9.63;;;2.85;;
37339;SDS011;23223;51.006;7.610;2023-07-31T03:08:55;11.18;;;2.75;;
37339;SDS011;23223;51.006;7.610;2023-07-31T03:11:20;5.25;;;2.50;;
37339;SDS011;23223;51.006;7.610;2023-07-31T03:13:46;8.68;;;2.95;;
37339;SDS011;23223;51.006;7.610;2023-07-31T03:16:11;9.40;;;3.30;;
37339;SDS011;23223;51.006;7.610;2023-07-31T03:18:37;6.28;;;2.55;;
37339;SDS011;23223;51.006;7.610;2023-07-31T03:21:03;5.97;;;2.83;;
37339;SDS011;23223;51.006;7.610;2023-07-31T03:23:29;8.38;;;2.70;;
37339;SDS011;23223;51.006;7.610;2023-07-31T03:25:55;5.30;;;2.95;;
37339;SDS011;23223;51.006;7.610;2023-07-31T03:28:25;5.35;;;2.50;;
37339;SDS011;23223;51.006;7.610;2023-07-31T03:30:51;6.60;;;2.75;;
37339;SDS011;23223;51.006;7.610;2023-07-31T03:33:17;8.75;;;2.85;;
37339;SDS011;23223;51.006;7.610;2023-07-31T03:35:43;4.40;;;2.83;;
37339;SDS011;23223;51.006;7.610;2023-07-31T03:38:08;6.18;;;2.90;;
37339;SDS011;23223;51.006;7.610;2023-07-31T03:40:34;11.23;;;3.20;;
37339;SDS011;23223;51.006;7.610;2023-07-31T03:42:59;10.00;;;2.95;;
37339;SDS011;23223;51.006;7.610;2023-07-31T03:45:25;7.35;;;3.13;;
37339;SDS011;23223;51.006;7.610;2023-07-31T03:47:50;7.25;;;2.60;;
37339;SDS011;23223;51.006;7.610;2023-07-31T03:50:16;6.03;;;2.75;;
37339;SDS011;23223;51.006;7.610;2023-07-31T03:52:42;4.55;;;2.45;;
37339;SDS011;23223;51.006;7.610;2023-07-31T03:55:07;5.32;;;2.70;;
37339;SDS011;23223;51.006;7.610;2023-07-31T03:57:33;3.67;;;2.10;;
37339;SDS011;23223;51.006;7.610;2023-07-31T03:59:59;2.63;;;2.03;;
37339;SDS011;23223;51.006;7.610;2023-07-31T04:02:24;3.60;;;2.25;;
37339;SDS011;23223;51.006;7.610;2023-07-31T04:04:50;5.10;;;2.67;;
37339;SDS011;23223;51.006;7.610;2023-07-31T04:07:15;4.97;;;2.50;;
37339;SDS011;23223;51.006;7.610;2023-07-31T04:09:41;8.38;;;3.33;;
37339;SDS011;23223;51.006;7.610;2023-07-31T04:12:06;14.27;;;3.50;;
37339;SDS011;23223;51.006;7.610;2023-07-31T04:14:32;3.40;;;1.38;;
37339;SDS011;23223;51.006;7.610;2023-07-31T04:16:58;4.40;;;2.20;;
37339;SDS011;23223;51.006;7.610;2023-07-31T04:19:24;6.10;;;3.20;;
37339;SDS011;23223;51.006;7.610;2023-07-31T04:21:49;5.35;;;2.85;;
37339;SDS011;23223;51.006;7.610;2023-07-31T04:24:15;5.65;;;2.80;;
37339;SDS011;23223;51.006;7.610;2023-07-31T04:26:41;6.47;;;3.00;;
37339;SDS011;23223;51.006;7.610;2023-07-31T04:29:06;6.72;;;2.63;;
37339;SDS011;23223;51.006;7.610;2023-07-31T04:31:33;11.30;;;2.80;;
37339;SDS011;23223;51.006;7.610;2023-07-31T04:33:58;3.95;;;2.28;;
37339;SDS011;23223;51.006;7.610;2023-07-31T04:36:24;6.47;;;2.75;;
37339;SDS011;23223;51.006;7.610;2023-07-31T04:38:49;6.32;;;2.53;;
37339;SDS011;23223;51.006;7.610;2023-07-31T04:41:15;6.28;;;3.10;;
37339;SDS011;23223;51.006;7.610;2023-07-31T04:43:41;7.57;;;2.80;;
37339;SDS011;23223;51.006;7.610;2023-07-31T04:46:06;4.22;;;2.60;;
37339;SDS011;23223;51.006;7.610;2023-07-31T04:48:32;7.10;;;3.40;;
37339;SDS011;23223;51.006;7.610;2023-07-31T04:50:57;8.32;;;3.10;;
37339;SDS011;23223;51.006;7.610;2023-07-31T04:53:23;8.82;;;3.30;;
37339;SDS011;23223;51.006;7.610;2023-07-31T04:55:48;5.97;;;3.47;;
37339;SDS011;23223;51.006;7.610;2023-07-31T04:58:14;6.50;;;3.33;;
37339;SDS011;23223;51.006;7.610;2023-07-31T05:00:39;8.10;;;2.95;;
37339;SDS011;23223;51.006;7.610;2023-07-31T05:03:05;8.15;;;2.42;;
37339;SDS011;23223;51.006;7.610;2023-07-31T05:05:31;5.05;;;2.78;;
37339;SDS011;23223;51.006;7.610;2023-07-31T05:07:57;6.03;;;2.38;;
37339;SDS011;23223;51.006;7.610;2023-07-31T05:10:22;7.60;;;3.38;;
37339;SDS011;23223;51.006;7.610;2023-07-31T05:12:48;5.28;;;3.22;;
37339;SDS011;23223;51.006;7.610;2023-07-31T05:15:13;11.68;;;3.97;;
37339;SDS011;23223;51.006;7.610;2023-07-31T05:17:39;9.18;;;3.35;;
37339;SDS011;23223;51.006;7.610;2023-07-31T05:20:05;9.43;;;4.22;;
37339;SDS011;23223;51.006;7.610;2023-07-31T05:22:31;8.30;;;3.65;;
37339;SDS011;23223;51.006;7.610;2023-07-31T05:24:56;9.38;;;3.50;;
37339;SDS011;23223;51.006;7.610;2023-07-31T05:27:22;17.10;;;4.30;;
37339;SDS011;23223;51.006;7.610;2023-07-31T05:29:48;14.18;;;4.38;;
37339;SDS011;23223;51.006;7.610;2023-07-31T05:32:13;15.55;;;4.35;;
37339;SDS011;23223;51.006;7.610;2023-07-31T05:34:39;8.88;;;3.88;;
37339;SDS011;23223;51.006;7.610;2023-07-31T05:37:04;9.55;;;3.38;;
37339;SDS011;23223;51.006;7.610;2023-07-31T05:39:30;7.45;;;3.72;;
37339;SDS011;23223;51.006;7.610;2023-07-31T05:41:56;7.97;;;3.97;;
37339;SDS011;23223;51.006;7.610;2023-07-31T05:44:21;10.05;;;3.30;;
37339;SDS011;23223;51.006;7.610;2023-07-31T05:46:47;6.15;;;3.13;;
37339;SDS011;23223;51.006;7.610;2023-07-31T05:49:13;9.23;;;3.70;;
37339;SDS011;23223;51.006;7.610;2023-07-31T05:51:38;10.48;;;3.55;;
37339;SDS011;23223;51.006;7.610;2023-07-31T05:54:04;4.60;;;3.17;;
37339;SDS011;23223;51.006;7.610;2023-07-31T05:56:30;8.73;;;3.13;;
37339;SDS011;23223;51.006;7.610;2023-07-31T05:58:56;7.38;;;3.67;;
37339;SDS011;23223;51.006;7.610;2023-07-31T06:01:22;8.52;;;3.80;;
37339;SDS011;23223;51.006;7.610;2023-07-31T06:03:47;9.35;;;3.38;;
37339;SDS011;23223;51.006;7.610;2023-07-31T06:06:13;11.80;;;3.97;;
37339;SDS011;23223;51.006;7.610;2023-07-31T06:08:39;6.60;;;2.85;;
37339;SDS011;23223;51.006;7.610;2023-07-31T06:11:05;3.63;;;2.65;;
37339;SDS011;23223;51.006;7.610;2023-07-31T06:13:30;9.05;;;3.05;;
37339;SDS011;23223;51.006;7.610;2023-07-31T06:15:56;3.85;;;2.88;;
37339;SDS011;23223;51.006;7.610;2023-07-31T06:18:22;13.00;;;4.22;;
37339;SDS011;23223;51.006;7.610;2023-07-31T06:20:47;13.10;;;3.92;;
37339;SDS011;23223;51.006;7.610;2023-07-31T06:23:18;13.63;;;3.10;;
37339;SDS011;23223;51.006;7.610;2023-07-31T06:25:44;5.82;;;3.35;;
37339;SDS011;23223;51.006;7.610;2023-07-31T06:28:09;7.43;;;2.90;;
37339;SDS011;23223;51.006;7.610;2023-07-31T06:30:35;6.65;;;3.50;;
37339;SDS011;23223;51.006;7.610;2023-07-31T06:33:01;5.80;;;2.97;;
37339;SDS011;23223;51.006;7.610;2023-07-31T06:35:26;5.88;;;2.75;;
37339;SDS011;23223;51.006;7.610;2023-07-31T06:37:52;4.55;;;2.80;;
37339;SDS011;23223;51.006;7.610;2023-07-31T06:40:17;8.45;;;2.80;;
37339;SDS011;23223;51.006;7.610;2023-07-31T06:42:45;5.45;;;3.50;;
37339;SDS011;23223;51.006;7.610;2023-07-31T06:45:10;8.18;;;3.58;;
37339;SDS011;23223;51.006;7.610;2023-07-31T06:47:36;6.25;;;2.65;;
37339;SDS011;23223;51.006;7.610;2023-07-31T06:50:02;6.88;;;2.88;;
37339;SDS011;23223;51.006;7.610;2023-07-31T06:52:27;8.30;;;2.90;;
37339;SDS011;23223;51.006;7.610;2023-07-31T06:55:03;5.18;;;3.13;;
37339;SDS011;23223;51.006;7.610;2023-07-31T06:57:42;7.03;;;3.67;;
37339;SDS011;23223;51.006;7.610;2023-07-31T07:00:08;5.40;;;3.30;;
37339;SDS011;23223;51.006;7.610;2023-07-31T07:02:34;4.57;;;2.90;;
37339;SDS011;23223;51.006;7.610;2023-07-31T07:04:59;4.25;;;2.72;;
37339;SDS011;23223;51.006;7.610;2023-07-31T07:07:25;5.18;;;3.20;;
37339;SDS011;23223;51.006;7.610;2023-07-31T07:09:51;4.25;;;3.05;;
37339;SDS011;23223;51.006;7.610;2023-07-31T07:12:16;6.10;;;3.13;;
37339;SDS011;23223;51.006;7.610;2023-07-31T07:14:42;6.18;;;3.03;;
37339;SDS011;23223;51.006;7.610;2023-07-31T07:17:07;5.88;;;2.63;;
37339;SDS011;23223;51.006;7.610;2023-07-31T07:19:33;5.85;;;2.35;;
37339;SDS011;23223;51.006;7.610;2023-07-31T07:21:58;4.43;;;2.47;;
37339;SDS011;23223;51.006;7.610;2023-07-31T07:24:26;5.85;;;2.60;;
37339;SDS011;23223;51.006;7.610;2023-07-31T07:26:52;5.85;;;2.92;;
37339;SDS011;23223;51.006;7.610;2023-07-31T07:29:18;4.97;;;2.63;;
37339;SDS011;23223;51.006;7.610;2023-07-31T07:31:43;4.70;;;3.22;;
37339;SDS011;23223;51.006;7.610;2023-07-31T07:34:09;7.78;;;2.78;;
37339;SDS011;23223;51.006;7.610;2023-07-31T07:36:34;6.07;;;3.53;;
37339;SDS011;23223;51.006;7.610;2023-07-31T07:39:00;8.80;;;3.42;;
37339;SDS011;23223;51.006;7.610;2023-07-31T07:41:25;8.63;;;3.00;;
37339;SDS011;23223;51.006;7.610;2023-07-31T07:43:51;6.80;;;3.78;;
37339;SDS011;23223;51.006;7.610;2023-07-31T07:46:16;7.45;;;3.42;;
37339;SDS011;23223;51.006;7.610;2023-07-31T07:48:42;7.22;;;3.35;;
37339;SDS011;23223;51.006;7.610;2023-07-31T07:51:08;3.35;;;2.35;;
37339;SDS011;23223;51.006;7.610;2023-07-31T07:53:33;8.05;;;3.40;;
37339;SDS011;23223;51.006;7.610;2023-07-31T07:55:59;5.65;;;3.65;;
37339;SDS011;23223;51.006;7.610;2023-07-31T07:58:24;5.57;;;2.78;;
37339;SDS011;23223;51.006;7.610;2023-07-31T08:00:50;6.25;;;2.78;;
37339;SDS011;23223;51.006;7.610;2023-07-31T08:03:16;3.08;;;2.40;;
37339;SDS011;23223;51.006;7.610;2023-07-31T08:05:43;5.38;;;2.47;;
37339;SDS011;23223;51.006;7.610;2023-07-31T08:08:13;5.20;;;3.13;;
37339;SDS011;23223;51.006;7.610;2023-07-31T08:10:43;5.85;;;2.88;;
37339;SDS011;23223;51.006;7.610;2023-07-31T08:13:11;4.57;;;2.88;;
37339;SDS011;23223;51.006;7.610;2023-07-31T08:15:37;6.70;;;3.45;;
37339;SDS011;23223;51.006;7.610;2023-07-31T08:18:03;4.75;;;2.30;;
37339;SDS011;23223;51.006;7.610;2023-07-31T08:20:28;7.95;;;3.63;;
37339;SDS011;23223;51.006;7.610;2023-07-31T08:22:54;5.88;;;3.03;;
37339;SDS011;23223;51.006;7.610;2023-07-31T08:25:19;6.65;;;3.00;;
37339;SDS011;23223;51.006;7.610;2023-07-31T08:27:45;5.78;;;3.30;;
37339;SDS011;23223;51.006;7.610;2023-07-31T08:30:11;5.80;;;3.65;;
37339;SDS011;23223;51.006;7.610;2023-07-31T08:32:37;10.10;;;3.63;;
37339;SDS011;23223;51.006;7.610;2023-07-31T08:35:03;6.72;;;3.13;;
37339;SDS011;23223;51.006;7.610;2023-07-31T08:37:29;5.47;;;3.20;;
37339;SDS011;23223;51.006;7.610;2023-07-31T08:39:54;5.72;;;3.42;;
37339;SDS011;23223;51.006;7.610;2023-07-31T08:42:20;7.13;;;3.70;;
37339;SDS011;23223;51.006;7.610;2023-07-31T08:44:46;11.07;;;4.18;;
37339;SDS011;23223;51.006;7.610;2023-07-31T08:47:12;5.28;;;3.58;;
37339;SDS011;23223;51.006;7.610;2023-07-31T08:49:38;4.63;;;3.05;;
37339;SDS011;23223;51.006;7.610;2023-07-31T08:52:05;6.85;;;3.78;;
37339;SDS011;23223;51.006;7.610;2023-07-31T08:54:31;9.48;;;3.38;;
37339;SDS011;23223;51.006;7.610;2023-07-31T08:56:58;9.65;;;3.80;;
37339;SDS011;23223;51.006;7.610;2023-07-31T08:59:26;4.55;;;3.13;;
37339;SDS011;23223;51.006;7.610;2023-07-31T09:01:55;9.70;;;4.20;;
37339;SDS011;23223;51.006;7.610;2023-07-31T09:04:26;8.88;;;3.67;;
37339;SDS011;23223;51.006;7.610;2023-07-31T09:06:53;7.35;;;2.90;;
37339;SDS011;23223;51.006;7.610;2023-07-31T09:09:24;5.35;;;2.58;;
37339;SDS011;23223;51.006;7.610;2023-07-31T09:11:49;8.68;;;3.58;;
37339;SDS011;23223;51.006;7.610;2023-07-31T09:14:15;5.25;;;2.80;;
37339;SDS011;23223;51.006;7.610;2023-07-31T09:16:52;5.68;;;3.00;;
37339;SDS011;23223;51.006;7.610;2023-07-31T09:19:25;6.13;;;3.00;;
37339;SDS011;23223;51.006;7.610;2023-07-31T09:21:52;3.25;;;2.30;;
37339;SDS011;23223;51.006;7.610;2023-07-31T09:24:24;7.13;;;3.17;;
37339;SDS011;23223;51.006;7.610;2023-07-31T09:26:55;4.45;;;2.55;;
37339;SDS011;23223;51.006;7.610;2023-07-31T09:29:21;4.15;;;2.78;;
37339;SDS011;23223;51.006;7.610;2023-07-31T09:31:47;5.43;;;3.10;;
37339;SDS011;23223;51.006;7.610;2023-07-31T09:34:13;7.20;;;3.00;;
37339;SDS011;23223;51.006;7.610;2023-07-31T09:36:42;7.85;;;3.53;;
37339;SDS011;23223;51.006;7.610;2023-07-31T09:39:10;6.60;;;3.22;;
37339;SDS011;23223;51.006;7.610;2023-07-31T09:41:37;4.25;;;2.78;;
37339;SDS011;23223;51.006;7.610;2023-07-31T09:44:04;3.78;;;2.05;;
37339;SDS011;23223;51.006;7.610;2023-07-31T09:46:30;7.85;;;2.97;;
37339;SDS011;23223;51.006;7.610;2023-07-31T09:49:06;5.55;;;2.78;;
37339;SDS011;23223;51.006;7.610;2023-07-31T09:51:34;4.85;;;2.88;;
37339;SDS011;23223;51.006;7.610;2023-07-31T09:54:03;5.72;;;2.45;;
37339;SDS011;23223;51.006;7.610;2023-07-31T09:56:33;6.85;;;3.13;;
37339;SDS011;23223;51.006;7.610;2023-07-31T09:59:00;2.75;;;2.05;;
37339;SDS011;23223;51.006;7.610;2023-07-31T10:01:26;7.18;;;3.00;;
37339;SDS011;23223;51.006;7.610;2023-07-31T10:03:52;4.45;;;2.80;;
37339;SDS011;23223;51.006;7.610;2023-07-31T10:06:18;10.13;;;3.35;;
37339;SDS011;23223;51.006;7.610;2023-07-31T10:08:44;4.68;;;3.03;;
37339;SDS011;23223;51.006;7.610;2023-07-31T10:11:12;5.85;;;2.83;;
37339;SDS011;23223;51.006;7.610;2023-07-31T10:13:39;5.30;;;2.60;;
37339;SDS011;23223;51.006;7.610;2023-07-31T10:16:06;3.47;;;2.03;;
37339;SDS011;23223;51.006;7.610;2023-07-31T10:18:32;3.45;;;2.40;;
37339;SDS011;23223;51.006;7.610;2023-07-31T10:21:00;4.72;;;2.65;;
37339;SDS011;23223;51.006;7.610;2023-07-31T10:23:26;4.20;;;2.22;;
37339;SDS011;23223;51.006;7.610;2023-07-31T10:25:53;3.55;;;2.58;;
37339;SDS011;23223;51.006;7.610;2023-07-31T10:28:19;5.00;;;2.50;;
37339;SDS011;23223;51.006;7.610;2023-07-31T10:30:46;8.27;;;3.22;;
37339;SDS011;23223;51.006;7.610;2023-07-31T10:33:11;6.13;;;3.20;;
37339;SDS011;23223;51.006;7.610;2023-07-31T10:35:37;3.92;;;2.47;;
37339;SDS011;23223;51.006;7.610;2023-07-31T10:38:08;6.38;;;2.95;;
37339;SDS011;23223;51.006;7.610;2023-07-31T10:40:37;6.55;;;3.50;;
37339;SDS011;23223;51.006;7.610;2023-07-31T10:43:03;6.13;;;3.00;;
37339;SDS011;23223;51.006;7.610;2023-07-31T10:45:37;6.25;;;3.08;;
37339;SDS011;23223;51.006;7.610;2023-07-31T10:48:12;4.82;;;2.47;;
37339;SDS011;23223;51.006;7.610;2023-07-31T10:50:49;7.80;;;3.40;;
37339;SDS011;23223;51.006;7.610;2023-07-31T10:53:25;8.93;;;3.50;;
37339;SDS011;23223;51.006;7.610;2023-07-31T10:55:51;4.90;;;2.92;;
37339;SDS011;23223;51.006;7.610;2023-07-31T10:58:18;6.50;;;3.55;;
37339;SDS011;23223;51.006;7.610;2023-07-31T11:00:44;4.82;;;3.00;;
37339;SDS011;23223;51.006;7.610;2023-07-31T11:05:44;7.10;;;2.78;;
37339;SDS011;23223;51.006;7.610;2023-07-31T11:08:23;5.57;;;2.58;;
37339;SDS011;23223;51.006;7.610;2023-07-31T11:10:51;6.53;;;3.28;;
37339;SDS011;23223;51.006;7.610;2023-07-31T11:13:25;8.32;;;3.22;;
37339;SDS011;23223;51.006;7.610;2023-07-31T11:15:51;4.30;;;2.70;;
37339;SDS011;23223;51.006;7.610;2023-07-31T11:18:17;5.85;;;3.03;;
37339;SDS011;23223;51.006;7.610;2023-07-31T11:20:43;5.93;;;3.20;;
37339;SDS011;23223;51.006;7.610;2023-07-31T11:23:09;8.48;;;2.83;;
37339;SDS011;23223;51.006;7.610;2023-07-31T11:25:35;5.20;;;2.67;;
37339;SDS011;23223;51.006;7.610;2023-07-31T11:28:06;7.30;;;3.00;;
37339;SDS011;23223;51.006;7.610;2023-07-31T11:30:36;5.03;;;3.03;;
37339;SDS011;23223;51.006;7.610;2023-07-31T11:33:03;5.00;;;2.78;;
37339;SDS011;23223;51.006;7.610;2023-07-31T11:35:30;3.08;;;2.55;;
37339;SDS011;23223;51.006;7.610;2023-07-31T11:38:00;5.28;;;2.83;;
37339;SDS011;23223;51.006;7.610;2023-07-31T11:40:27;6.38;;;3.35;;
37339;SDS011;23223;51.006;7.610;2023-07-31T11:42:58;5.72;;;3.22;;
37339;SDS011;23223;51.006;7.610;2023-07-31T11:45:28;7.65;;;3.28;;
37339;SDS011;23223;51.006;7.610;2023-07-31T11:47:55;4.40;;;2.90;;
37339;SDS011;23223;51.006;7.610;2023-07-31T11:50:21;6.53;;;3.03;;
37339;SDS011;23223;51.006;7.610;2023-07-31T11:52:49;4.70;;;2.97;;
37339;SDS011;23223;51.006;7.610;2023-07-31T11:55:19;6.05;;;2.92;;
37339;SDS011;23223;51.006;7.610;2023-07-31T11:57:45;9.88;;;3.47;;
37339;SDS011;23223;51.006;7.610;2023-07-31T12:00:11;5.97;;;3.08;;
37339;SDS011;23223;51.006;7.610;2023-07-31T12:02:39;5.30;;;2.88;;
37339;SDS011;23223;51.006;7.610;2023-07-31T12:05:05;6.90;;;2.20;;
37339;SDS011;23223;51.006;7.610;2023-07-31T12:07:53;3.90;;;2.60;;
37339;SDS011;23223;51.006;7.610;2023-07-31T12:10:26;7.53;;;3.35;;
37339;SDS011;23223;51.006;7.610;2023-07-31T12:12:58;6.90;;;2.60;;
37339;SDS011;23223;51.006;7.610;2023-07-31T12:15:35;2.53;;;1.67;;
37339;SDS011;23223;51.006;7.610;2023-07-31T12:18:10;6.78;;;2.45;;
37339;SDS011;23223;51.006;7.610;2023-07-31T12:20:44;3.10;;;2.15;;
37339;SDS011;23223;51.006;7.610;2023-07-31T12:23:20;3.60;;;2.50;;
37339;SDS011;23223;51.006;7.610;2023-07-31T12:26:33;4.68;;;2.47;;
37339;SDS011;23223;51.006;7.610;2023-07-31T12:28:45;2.95;;;2.10;;
37339;SDS011;23223;51.006;7.610;2023-07-31T12:31:20;4.80;;;2.03;;
37339;SDS011;23223;51.006;7.610;2023-07-31T12:33:47;5.53;;;2.10;;
37339;SDS011;23223;51.006;7.610;2023-07-31T12:36:16;5.28;;;2.05;;
37339;SDS011;23223;51.006;7.610;2023-07-31T12:38:43;3.08;;;1.83;;
37339;SDS011;23223;51.006;7.610;2023-07-31T12:41:10;4.28;;;1.83;;
37339;SDS011;23223;51.006;7.610;2023-07-31T12:43:36;2.45;;;1.95;;
37339;SDS011;23223;51.006;7.610;2023-07-31T12:46:03;3.30;;;2.42;;
37339;SDS011;23223;51.006;7.610;2023-07-31T12:48:31;3.28;;;2.03;;
37339;SDS011;23223;51.006;7.610;2023-07-31T12:50:57;6.00;;;1.85;;
37339;SDS011;23223;51.006;7.610;2023-07-31T12:53:23;4.22;;;2.03;;
37339;SDS011;23223;51.006;7.610;2023-07-31T12:55:48;2.95;;;1.70;;
37339;SDS011;23223;51.006;7.610;2023-07-31T12:58:15;1.95;;;1.27;;
37339;SDS011;23223;51.006;7.610;2023-07-31T13:00:40;2.20;;;1.50;;
37339;SDS011;23223;51.006;7.610;2023-07-31T13:03:06;1.75;;;1.48;;
37339;SDS011;23223;51.006;7.610;2023-07-31T13:05:31;3.53;;;1.63;;
37339;SDS011;23223;51.006;7.610;2023-07-31T13:07:57;2.42;;;1.75;;
37339;SDS011;23223;51.006;7.610;2023-07-31T13:10:23;4.65;;;1.52;;
37339;SDS011;23223;51.006;7.610;2023-07-31T13:12:49;1.83;;;1.48;;
37339;SDS011;23223;51.006;7.610;2023-07-31T13:15:15;2.42;;;1.55;;
37339;SDS011;23223;51.006;7.610;2023-07-31T13:17:40;3.50;;;1.65;;
37339;SDS011;23223;51.006;7.610;2023-07-31T13:20:06;1.85;;;1.40;;
37339;SDS011;23223;51.006;7.610;2023-07-31T13:22:32;6.68;;;1.70;;
37339;SDS011;23223;51.006;7.610;2023-07-31T13:24:58;1.92;;;1.42;;
37339;SDS011;23223;51.006;7.610;2023-07-31T13:27:23;2.88;;;1.55;;
37339;SDS011;23223;51.006;7.610;2023-07-31T13:29:49;2.00;;;1.25;;
37339;SDS011;23223;51.006;7.610;2023-07-31T13:32:19;3.72;;;2.30;;
37339;SDS011;23223;51.006;7.610;2023-07-31T13:34:45;3.45;;;1.70;;
37339;SDS011;23223;51.006;7.610;2023-07-31T13:37:12;3.13;;;1.60;;
37339;SDS011;23223;51.006;7.610;2023-07-31T13:39:38;2.03;;;1.30;;
37339;SDS011;23223;51.006;7.610;2023-07-31T13:42:04;2.70;;;1.00;;
37339;SDS011;23223;51.006;7.610;2023-07-31T13:44:32;4.82;;;1.88;;
37339;SDS011;23223;51.006;7.610;2023-07-31T13:47:01;4.50;;;1.73;;
37339;SDS011;23223;51.006;7.610;2023-07-31T13:49:27;2.45;;;1.60;;
37339;SDS011;23223;51.006;7.610;2023-07-31T13:51:53;4.80;;;2.28;;
37339;SDS011;23223;51.006;7.610;2023-07-31T13:54:19;3.75;;;1.75;;
37339;SDS011;23223;51.006;7.610;2023-07-31T13:56:44;3.03;;;1.40;;
37339;SDS011;23223;51.006;7.610;2023-07-31T13:59:10;3.80;;;1.70;;
37339;SDS011;23223;51.006;7.610;2023-07-31T14:01:36;4.00;;;1.60;;
37339;SDS011;23223;51.006;7.610;2023-07-31T14:04:02;1.75;;;1.45;;
37339;SDS011;23223;51.006;7.610;2023-07-31T14:06:28;4.50;;;1.73;;
37339;SDS011;23223;51.006;7.610;2023-07-31T14:08:53;5.13;;;1.90;;
37339;SDS011;23223;51.006;7.610;2023-07-31T14:11:20;3.90;;;2.33;;
37339;SDS011;23223;51.006;7.610;2023-07-31T14:13:46;4.63;;;2.38;;
37339;SDS011;23223;51.006;7.610;2023-07-31T14:16:12;3.72;;;1.75;;
37339;SDS011;23223;51.006;7.610;2023-07-31T14:18:38;3.30;;;2.10;;
37339;SDS011;23223;51.006;7.610;2023-07-31T14:21:03;4.30;;;1.80;;
37339;SDS011;23223;51.006;7.610;2023-07-31T14:23:29;5.78;;;2.40;;
37339;SDS011;23223;51.006;7.610;2023-07-31T14:25:54;2.58;;;2.03;;
37339;SDS011;23223;51.006;7.610;2023-07-31T14:28:20;3.05;;;1.88;;
37339;SDS011;23223;51.006;7.610;2023-07-31T14:30:45;2.72;;;1.85;;
37339;SDS011;23223;51.006;7.610;2023-07-31T14:33:11;5.82;;;2.17;;
37339;SDS011;23223;51.006;7.610;2023-07-31T14:35:36;5.25;;;2.60;;
37339;SDS011;23223;51.006;7.610;2023-07-31T14:38:02;4.50;;;2.45;;
37339;SDS011;23223;51.006;7.610;2023-07-31T14:40:27;5.47;;;1.98;;
37339;SDS011;23223;51.006;7.610;2023-07-31T14:42:53;4.63;;;1.98;;
37339;SDS011;23223;51.006;7.610;2023-07-31T14:45:19;3.20;;;2.35;;
37339;SDS011;23223;51.006;7.610;2023-07-31T14:47:44;9.93;;;2.95;;
37339;SDS011;23223;51.006;7.610;2023-07-31T14:50:10;3.90;;;2.70;;